Track пигорев Дмитрий

Time Latitude Longitude Accuracy (66% radius in meters) Altitude (meters) Speed (km/hour) Bearing (degrees) Battery (%) GPS flag
10:52:49 51.753675 39.189469 8 182.06333962476 0 16.008178710938 65 1 delete
10:52:37 51.753675 39.189469 8 182.27105131843 0 16.008178710938 65 1 delete
10:52:25 51.753675 39.189469 12 182.2971506746 0 16.008178710938 65 1 delete
10:52:13 51.753675 39.189469 8 182.35704731614 0 16.008178710938 65 1 delete
10:52:01 51.753675 39.189469 12 182.54662729757 0 16.008178710938 65 1 delete
10:51:49 51.753675 39.189469 6 182.69597806455 0 16.008178710938 65 1 delete
10:51:37 51.753675 39.189469 12 182.9447794166 0 16.008178710938 65 1 delete
10:51:25 51.753675 39.189469 8 183.53603630656 0 16.008178710938 65 1 delete
10:51:13 51.753675 39.189469 12 183.84762452595 0 16.008178710938 65 1 delete
10:51:01 51.753675 39.189469 8 184.04638430741 0 16.008178710938 65 1 delete
10:50:49 51.753675 39.189469 8 184.30789051534 0 16.008178710938 65 1 delete
10:50:37 51.753675 39.189469 12 184.64116698438 0 16.008178710938 65 1 delete
10:50:25 51.753675 39.189469 8 184.99329631284 0 16.008178710938 65 1 delete
10:50:13 51.753675 39.189469 6 185.42650683123 0 16.008178710938 65 1 delete
10:50:01 51.753675 39.189469 12 185.81094352671 0 16.008178710938 65 1 delete
10:49:49 51.753675 39.189469 8 186.20262738621 0 16.008178710938 65 1 delete
10:49:37 51.753675 39.189469 12 186.13887952537 0 16.008178710938 65 1 delete
10:49:25 51.753675 39.189469 12 186.07537342661 0 16.008178710938 65 1 delete
10:49:04 51.753675 39.189469 6 186.23213558625 0 16.008178710938 65 1 delete
10:48:52 51.753675 39.189469 12 186.33575773929 0 16.008178710938 65 1 delete
10:48:40 51.753675 39.189469 8 186.42531914686 0 16.008178710938 65 1 delete
10:48:28 51.753675 39.189469 8 186.48168799785 0 16.008178710938 65 1 delete
10:48:16 51.753675 39.189469 8 186.43159069786 0 16.008178710938 65 1 delete
10:48:04 51.753675 39.189469 8 186.22600572946 0 16.008178710938 65 1 delete
10:47:52 51.753675 39.189469 12 186.11385236708 0 16.008178710938 65 1 delete
10:47:40 51.753675 39.189469 16 185.72926939276 0 16.008178710938 65 1 delete
10:47:28 51.753675 39.189469 12 185.23326366754 0 16.008178710938 65 1 delete
10:47:17 51.753675 39.189469 12 185.00974297515 0 16.008178710938 65 1 delete
10:47:05 51.753675 39.189469 16 184.51324247426 0 16.008178710938 65 1 delete
10:46:53 51.753675 39.189469 12 184.1299561641 0 16.008178710938 65 1 delete
10:46:44 51.753675 39.189469 12 183.80061870907 0 16.008178710938 65 1 delete
10:46:32 51.753675 39.189469 12 183.73261067377 0 16.008178710938 65 1 delete
10:46:20 51.753675 39.189469 8 183.75689479352 0 16.008178710938 65 1 delete
10:46:08 51.753675 39.189469 6 183.68706845121 0 16.008178710938 65 1 delete
10:45:56 51.753675 39.189469 16 183.6768973176 0 16.008178710938 65 1 delete
10:45:44 51.753675 39.189469 8 183.75192066408 0 16.008178710938 65 1 delete
10:45:32 51.753675 39.189469 16 183.66363645993 0 16.008178710938 65 1 delete
10:45:23 51.753681 39.189471 8 183.49965773136 0 16.008178710938 65 1 delete
10:45:11 51.753681 39.189471 12 183.85740810327 0 16.008178710938 65 1 delete
10:44:59 51.753684 39.189471 6 183.55938880606 0 16.008178710938 65 1 delete
10:44:47 51.753684 39.189471 8 183.32693128452 0 16.008178710938 65 1 delete
10:44:35 51.753684 39.189471 6 183.30678971175 0 16.008178710938 65 1 delete
10:44:20 51.753684 39.189471 16 182.83583310706 0 16.008178710938 65 1 delete
10:44:11 51.753684 39.189471 8 182.48629269972 0 16.008178710938 65 1 delete
10:43:59 51.753684 39.189471 8 182.06354988379 0 16.008178710938 65 1 delete
10:43:44 51.753684 39.189471 8 181.98205845622 0 16.008178710938 65 1 delete
10:43:35 51.753684 39.189471 6 181.89791539383 0 16.008178710938 65 1 delete
10:43:23 51.753684 39.189471 8 181.72115636584 0 16.008178710938 65 1 delete
10:43:11 51.753684 39.189471 6 181.650847592 0 16.008178710938 65 1 delete
10:42:59 51.753684 39.189471 6 181.48888745249 0 16.008178710938 69 1 delete